Terminal Aerodrome Forecast
Issued by NWS Pocatello, ID

Home | Current Version | Previous Version | Text Only | Print | Product List | Glossary On
Versions: 1 2 3 4 5 6 7 8 9 10 11 12 13 14 15 16
000
FTUS45 KPIH 272300
TAFPIH
TAF
KPIH 272321Z 2800/2824 26011KT P6SM SCT070
     FM280300 19006KT P6SM SKC
     FM281900 27012G20KT P6SM FEW070=

USA.gov is the U.S. government's official web portal to all federal, state and local government web resources and services.